Time;durP1;ratioP1;P1;durP2;ratioP2;P2;SDS_P1;SDS_P2;PMS_P1;PMS_P2;Temp;Humidity;BMP_temperature;BMP_pressure;BME280_temperature;BME280_humidity;BME280_pressure;Samples;Min_cycle;Max_cycle;Signal;HPM_P1;HPM_P2
2022/06/11 00:01:12;;;;;;;7.85;3.47;;;;;;;;;;5086957;28;20498;-66
2022/06/11 00:03:42;;;;;;;7.93;3.37;;;;;;;;;;5090823;28;20113;-66
2022/06/11 00:06:08;;;;;;;8.20;2.97;;;;;;;;;;5075933;28;20506;-66
2022/06/11 00:08:35;;;;;;;5.07;3.10;;;;;;;;;;5098085;28;20028;-66
2022/06/11 00:11:01;;;;;;;11.45;3.28;;;;;;;;;;5087096;28;20043;-66
2022/06/11 00:13:27;;;;;;;9.50;3.15;;;;;;;;;;5071632;28;20067;-66
2022/06/11 00:15:55;;;;;;;8.30;3.45;;;;;;;;;;5086834;28;20425;-66
2022/06/11 00:18:21;;;;;;;11.05;3.72;;;;;;;;;;5083198;28;20039;-66
2022/06/11 00:20:49;;;;;;;11.60;3.72;;;;;;;;;;5091960;28;20043;-66
2022/06/11 00:23:15;;;;;;;8.93;3.28;;;;;;;;;;5076811;28;20078;-66
2022/06/11 00:25:41;;;;;;;12.18;3.03;;;;;;;;;;5080976;28;20066;-66
2022/06/11 00:28:07;;;;;;;7.25;2.75;;;;;;;;;;5085155;28;20413;-66
2022/06/11 00:30:34;;;;;;;6.13;3.42;;;;;;;;;;5088020;28;20075;-66
2022/06/11 00:33:01;;;;;;;10.80;3.05;;;;;;;;;;5096934;28;20048;-66
2022/06/11 00:35:29;;;;;;;12.38;3.47;;;;;;;;;;5084879;27;20040;-66
2022/06/11 00:37:55;;;;;;;9.55;3.75;;;;;;;;;;5084579;28;20079;-66
2022/06/11 00:40:23;;;;;;;7.38;2.85;;;;;;;;;;5090102;28;20065;-66
2022/06/11 00:42:49;;;;;;;10.30;3.25;;;;;;;;;;5083336;28;20456;-66
2022/06/11 00:45:15;;;;;;;8.23;2.95;;;;;;;;;;5086357;28;20067;-66
2022/06/11 00:47:43;;;;;;;11.10;3.03;;;;;;;;;;5099101;28;20094;-66
2022/06/11 00:50:18;;;;;;;12.07;3.75;;;;;;;;;;5073107;28;20082;-66
2022/06/11 00:52:45;;;;;;;7.90;2.92;;;;;;;;;;5069909;28;20036;-66
2022/06/11 00:55:18;;;;;;;7.53;3.30;;;;;;;;;;5088862;28;20044;-66
2022/06/11 00:58:11;;;;;;;8.88;3.20;;;;;;;;;;5082705;28;20100;-66
2022/06/11 01:00:41;;;;;;;13.20;4.03;;;;;;;;;;5092135;28;20114;-66
2022/06/11 01:03:08;;;;;;;10.90;3.10;;;;;;;;;;5087379;28;20037;-66
2022/06/11 01:05:36;;;;;;;8.48;3.58;;;;;;;;;;5085043;28;20077;-65
2022/06/11 01:08:05;;;;;;;10.95;3.63;;;;;;;;;;5093210;28;20028;-66
2022/06/11 01:10:43;;;;;;;8.82;4.32;;;;;;;;;;5087896;28;20604;-66
2022/06/11 01:13:31;;;;;;;8.25;3.33;;;;;;;;;;5069106;28;20044;-66
2022/06/11 01:16:00;;;;;;;11.25;3.40;;;;;;;;;;5075801;28;20058;-66
2022/06/11 01:18:39;;;;;;;8.23;3.05;;;;;;;;;;5072794;28;20078;-66
2022/06/11 01:21:17;;;;;;;7.03;3.47;;;;;;;;;;5086168;28;20414;-67
2022/06/11 01:24:09;;;;;;;11.93;4.25;;;;;;;;;;5093667;28;20497;-66
2022/06/11 01:26:46;;;;;;;10.73;4.97;;;;;;;;;;5080285;28;20056;-65
2022/06/11 01:29:12;;;;;;;10.68;3.30;;;;;;;;;;5091242;28;20040;-66
2022/06/11 01:31:44;;;;;;;12.63;4.20;;;;;;;;;;5103983;28;20036;-66
2022/06/11 01:34:22;;;;;;;8.55;3.35;;;;;;;;;;5098749;28;20047;-66
2022/06/11 01:36:50;;;;;;;9.65;3.58;;;;;;;;;;5092310;28;20048;-65
2022/06/11 01:39:37;;;;;;;15.10;4.45;;;;;;;;;;5107211;28;20040;-66
2022/06/11 01:42:23;;;;;;;9.90;2.83;;;;;;;;;;5089577;28;20044;-66
2022/06/11 01:44:59;;;;;;;11.30;3.60;;;;;;;;;;5083792;28;20174;-66
2022/06/11 01:47:25;;;;;;;10.75;3.10;;;;;;;;;;5084242;28;20056;-66
2022/06/11 01:49:52;;;;;;;9.90;3.67;;;;;;;;;;5071462;28;20040;-66
2022/06/11 01:52:18;;;;;;;11.73;4.57;;;;;;;;;;5082460;28;20486;-65
2022/06/11 01:55:09;;;;;;;13.02;4.25;;;;;;;;;;5076015;28;20064;-66
2022/06/11 01:57:35;;;;;;;14.07;4.32;;;;;;;;;;5098248;28;20457;-66
2022/06/11 02:00:05;;;;;;;12.77;4.25;;;;;;;;;;5093799;28;20482;-66
2022/06/11 02:02:41;;;;;;;12.02;3.45;;;;;;;;;;5078295;28;20044;-66
2022/06/11 02:05:12;;;;;;;8.05;3.42;;;;;;;;;;5096692;28;20123;-66
2022/06/11 02:07:47;;;;;;;9.75;3.22;;;;;;;;;;5089945;28;20131;-66
2022/06/11 02:10:38;;;;;;;12.35;3.97;;;;;;;;;;5093693;28;20032;-66
2022/06/11 02:13:23;;;;;;;9.43;3.70;;;;;;;;;;5079792;28;20033;-66
2022/06/11 02:15:54;;;;;;;6.15;2.92;;;;;;;;;;5099090;28;20082;-66
2022/06/11 02:18:22;;;;;;;10.10;3.72;;;;;;;;;;5081504;28;20075;-66
2022/06/11 02:20:57;;;;;;;13.88;3.60;;;;;;;;;;5097571;28;20071;-66
2022/06/11 02:23:39;;;;;;;10.52;4.18;;;;;;;;;;5088151;28;20488;-66
2022/06/11 02:26:10;;;;;;;8.13;3.40;;;;;;;;;;5086241;28;20075;-66
2022/06/11 02:28:37;;;;;;;12.70;4.00;;;;;;;;;;5092362;28;20032;-66
2022/06/11 02:31:06;;;;;;;7.03;3.25;;;;;;;;;;5103324;27;20458;-66
2022/06/11 02:33:34;;;;;;;10.90;4.20;;;;;;;;;;5096492;28;20029;-66
2022/06/11 02:36:03;;;;;;;8.98;3.85;;;;;;;;;;5105821;27;20084;-66
2022/06/11 02:38:30;;;;;;;9.93;4.13;;;;;;;;;;5089955;28;20506;-66
2022/06/11 02:41:01;;;;;;;11.02;4.10;;;;;;;;;;5096554;28;20078;-66
2022/06/11 02:43:28;;;;;;;13.33;4.97;;;;;;;;;;5089014;28;20035;-66
2022/06/11 02:45:54;;;;;;;13.00;4.18;;;;;;;;;;5099916;28;20040;-66
2022/06/11 02:48:21;;;;;;;12.32;4.32;;;;;;;;;;5100734;28;20044;-65
2022/06/11 02:50:48;;;;;;;8.73;4.53;;;;;;;;;;5084764;28;20087;-66
2022/06/11 02:53:15;;;;;;;8.85;4.25;;;;;;;;;;5086436;28;20497;-66
2022/06/11 02:55:41;;;;;;;13.32;4.65;;;;;;;;;;5078700;28;20485;-66
2022/06/11 02:58:10;;;;;;;16.55;4.80;;;;;;;;;;5083669;28;20033;-67
2022/06/11 03:00:38;;;;;;;10.20;3.88;;;;;;;;;;5079885;28;20038;-66
2022/06/11 03:03:04;;;;;;;8.05;4.00;;;;;;;;;;5078418;28;20127;-66
2022/06/11 03:05:31;;;;;;;17.08;4.45;;;;;;;;;;5075172;28;20086;-66
2022/06/11 03:07:58;;;;;;;10.45;3.58;;;;;;;;;;5074645;28;20414;-66
2022/06/11 03:10:25;;;;;;;10.88;4.25;;;;;;;;;;5088861;28;20111;-65
2022/06/11 03:12:51;;;;;;;10.77;4.32;;;;;;;;;;5085945;28;20178;-66
2022/06/11 03:15:18;;;;;;;10.85;3.40;;;;;;;;;;5085981;28;20043;-66
2022/06/11 03:17:45;;;;;;;11.55;4.15;;;;;;;;;;5086449;28;20043;-67
2022/06/11 03:20:12;;;;;;;11.25;4.07;;;;;;;;;;5088029;28;20040;-65
2022/06/11 03:22:38;;;;;;;16.17;5.72;;;;;;;;;;5083285;28;20396;-66
2022/06/11 03:25:05;;;;;;;13.93;4.63;;;;;;;;;;5077515;28;20113;-66
2022/06/11 03:27:31;;;;;;;16.25;4.07;;;;;;;;;;5084570;28;20085;-66
2022/06/11 03:29:57;;;;;;;26.65;5.80;;;;;;;;;;5080274;28;20066;-66
2022/06/11 03:32:23;;;;;;;13.45;5.00;;;;;;;;;;5088995;28;20032;-66
2022/06/11 03:34:50;;;;;;;8.48;3.70;;;;;;;;;;5056853;28;20120;-66
2022/06/11 03:37:16;;;;;;;10.25;3.90;;;;;;;;;;5070783;28;20040;-66
2022/06/11 03:39:42;;;;;;;9.25;4.70;;;;;;;;;;5079647;28;20495;-66
2022/06/11 03:42:08;;;;;;;12.77;4.43;;;;;;;;;;5081334;28;20115;-65
2022/06/11 03:44:35;;;;;;;16.77;4.85;;;;;;;;;;5083237;28;20040;-66
2022/06/11 03:47:02;;;;;;;10.10;4.00;;;;;;;;;;5089360;28;20448;-66
2022/06/11 03:49:28;;;;;;;10.20;4.30;;;;;;;;;;5069984;28;20057;-65
2022/06/11 03:51:54;;;;;;;17.58;5.15;;;;;;;;;;5083211;28;20036;-66
2022/06/11 03:54:21;;;;;;;14.88;4.18;;;;;;;;;;5083791;28;20604;-66
2022/06/11 03:56:48;;;;;;;12.88;5.68;;;;;;;;;;5082932;28;20097;-66
2022/06/11 03:59:15;;;;;;;18.95;5.07;;;;;;;;;;5085992;28;20044;-66
2022/06/11 04:01:42;;;;;;;6.90;3.83;;;;;;;;;;5070868;28;20167;-66
2022/06/11 04:04:10;;;;;;;11.07;4.32;;;;;;;;;;5088112;28;20163;-66
2022/06/11 04:06:36;;;;;;;18.00;5.25;;;;;;;;;;5080085;28;20055;-66
2022/06/11 04:09:05;;;;;;;17.45;4.85;;;;;;;;;;5082537;28;20037;-66
2022/06/11 04:11:31;;;;;;;13.55;4.65;;;;;;;;;;5084621;28;20032;-67
2022/06/11 04:13:57;;;;;;;19.63;5.10;;;;;;;;;;5057816;28;20448;-66
2022/06/11 04:16:31;;;;;;;14.95;5.15;;;;;;;;;;5084050;28;20040;-66
2022/06/11 04:18:59;;;;;;;16.95;5.78;;;;;;;;;;5088196;28;20051;-66
2022/06/11 04:21:26;;;;;;;10.50;4.22;;;;;;;;;;5082157;28;20042;-66
2022/06/11 04:23:54;;;;;;;14.90;5.15;;;;;;;;;;5084583;28;20044;-66
2022/06/11 04:26:40;;;;;;;13.80;5.30;;;;;;;;;;5081619;28;20097;-66
2022/06/11 04:29:07;;;;;;;12.32;5.72;;;;;;;;;;5079509;28;20406;-66
2022/06/11 04:31:34;;;;;;;22.83;5.93;;;;;;;;;;5081774;28;20506;-66
2022/06/11 04:34:00;;;;;;;15.93;5.57;;;;;;;;;;5076080;28;20123;-66
2022/06/11 04:36:28;;;;;;;14.18;4.70;;;;;;;;;;5083175;28;20040;-66
2022/06/11 04:38:55;;;;;;;15.85;6.03;;;;;;;;;;5083204;28;20405;-66
2022/06/11 04:41:21;;;;;;;11.18;4.65;;;;;;;;;;5074630;28;20094;-65
2022/06/11 04:43:47;;;;;;;19.60;5.68;;;;;;;;;;5086928;28;20036;-66
2022/06/11 04:46:14;;;;;;;19.88;6.15;;;;;;;;;;5083363;28;20115;-66
2022/06/11 04:48:41;;;;;;;15.25;5.90;;;;;;;;;;5088927;28;20435;-66
2022/06/11 04:51:07;;;;;;;13.23;5.25;;;;;;;;;;5072167;28;20075;-66
2022/06/11 04:53:33;;;;;;;12.95;4.70;;;;;;;;;;5081717;28;20038;-66
2022/06/11 04:55:59;;;;;;;18.75;7.15;;;;;;;;;;5085017;28;20044;-66
2022/06/11 04:58:26;;;;;;;21.42;6.63;;;;;;;;;;5087387;28;20451;-66
2022/06/11 05:00:52;;;;;;;18.75;6.15;;;;;;;;;;5080795;28;20040;-66
2022/06/11 05:03:19;;;;;;;20.33;6.65;;;;;;;;;;5071917;28;20052;-66
2022/06/11 05:05:46;;;;;;;16.70;6.53;;;;;;;;;;5082983;28;20055;-66
2022/06/11 05:08:13;;;;;;;20.00;6.72;;;;;;;;;;5087301;28;20032;-67
2022/06/11 05:10:40;;;;;;;21.88;6.47;;;;;;;;;;5083577;28;20041;-66
2022/06/11 05:13:07;;;;;;;19.38;7.57;;;;;;;;;;5083098;28;20081;-66
2022/06/11 05:15:34;;;;;;;18.88;6.38;;;;;;;;;;5086283;28;20036;-66
2022/06/11 05:18:01;;;;;;;12.75;5.85;;;;;;;;;;5081814;28;20296;-66
2022/06/11 05:20:27;;;;;;;16.17;7.00;;;;;;;;;;5082152;28;20044;-66
2022/06/11 05:22:53;;;;;;;21.05;6.22;;;;;;;;;;5079256;28;20036;-66
2022/06/11 05:25:20;;;;;;;24.95;6.93;;;;;;;;;;5084310;28;20048;-66
2022/06/11 05:27:47;;;;;;;24.17;7.07;;;;;;;;;;5080699;28;20036;-66
2022/06/11 05:30:16;;;;;;;16.63;7.00;;;;;;;;;;5076302;28;20032;-66
2022/06/11 05:32:43;;;;;;;14.20;5.72;;;;;;;;;;5084175;28;20586;-66
2022/06/11 05:35:11;;;;;;;22.98;7.00;;;;;;;;;;5072612;28;20038;-66
2022/06/11 05:37:38;;;;;;;18.77;7.35;;;;;;;;;;5086176;28;20131;-66
2022/06/11 05:40:05;;;;;;;24.33;7.88;;;;;;;;;;5087043;28;20131;-66
2022/06/11 05:42:32;;;;;;;20.20;6.70;;;;;;;;;;5083877;28;20051;-66
2022/06/11 05:44:58;;;;;;;19.27;7.35;;;;;;;;;;5078075;28;20043;-66
2022/06/11 05:47:25;;;;;;;21.80;7.47;;;;;;;;;;5061457;28;20060;-66
2022/06/11 05:49:53;;;;;;;19.67;8.77;;;;;;;;;;5073984;28;20254;-66
2022/06/11 05:52:21;;;;;;;22.45;9.02;;;;;;;;;;5071390;28;20050;-66
2022/06/11 05:54:48;;;;;;;19.15;8.02;;;;;;;;;;5076249;28;20043;-66
2022/06/11 05:57:16;;;;;;;23.30;7.68;;;;;;;;;;5078379;28;20044;-66
2022/06/11 05:59:45;;;;;;;17.52;6.90;;;;;;;;;;5079080;28;20487;-66
2022/06/11 06:02:13;;;;;;;18.58;7.53;;;;;;;;;;5086188;28;20036;-66
2022/06/11 06:04:39;;;;;;;19.50;8.38;;;;;;;;;;5080775;28;20029;-66
2022/06/11 06:07:06;;;;;;;23.95;7.47;;;;;;;;;;5089804;28;20515;-66
2022/06/11 06:09:32;;;;;;;28.23;8.95;;;;;;;;;;5090393;28;20032;-66
2022/06/11 06:11:58;;;;;;;25.13;8.95;;;;;;;;;;5077268;28;20079;-66
2022/06/11 06:14:25;;;;;;;23.38;8.40;;;;;;;;;;5067929;28;20032;-66
2022/06/11 06:16:51;;;;;;;32.90;8.65;;;;;;;;;;5084968;28;20572;-66
2022/06/11 06:19:17;;;;;;;16.52;7.32;;;;;;;;;;5090029;28;20540;-66
2022/06/11 06:21:43;;;;;;;19.02;8.38;;;;;;;;;;5085946;28;20052;-66
2022/06/11 06:24:10;;;;;;;21.65;8.63;;;;;;;;;;5089723;28;20044;-66
2022/06/11 06:26:37;;;;;;;22.75;7.45;;;;;;;;;;5079369;28;20052;-66
2022/06/11 06:29:03;;;;;;;19.67;7.18;;;;;;;;;;5080522;28;20036;-66
2022/06/11 06:31:30;;;;;;;27.48;7.50;;;;;;;;;;5079087;28;20058;-67
2022/06/11 06:33:58;;;;;;;14.70;5.88;;;;;;;;;;5087346;28;20047;-66
2022/06/11 06:37:02;;;;;;;24.52;6.88;;;;;;;;;;5087817;28;20039;-77
2022/06/11 06:39:30;;;;;;;23.10;7.88;;;;;;;;;;5086091;28;20111;-76
2022/06/11 06:41:56;;;;;;;15.77;7.40;;;;;;;;;;5083280;28;20044;-76
2022/06/11 06:44:22;;;;;;;19.15;6.72;;;;;;;;;;5063224;28;20035;-75
2022/06/11 06:46:48;;;;;;;21.65;7.75;;;;;;;;;;5090558;28;20048;-75
2022/06/11 06:49:15;;;;;;;16.85;6.35;;;;;;;;;;5061257;28;20097;-75
2022/06/11 06:51:41;;;;;;;25.83;7.75;;;;;;;;;;5083024;28;20045;-75
2022/06/11 06:54:08;;;;;;;15.70;5.93;;;;;;;;;;5085438;28;20032;-76
2022/06/11 06:56:34;;;;;;;14.38;5.28;;;;;;;;;;5085780;28;20421;-76
2022/06/11 06:59:01;;;;;;;19.42;6.15;;;;;;;;;;5086953;28;20040;-75
2022/06/11 07:01:28;;;;;;;17.13;6.60;;;;;;;;;;5087925;28;20051;-75
2022/06/11 07:03:54;;;;;;;21.20;7.82;;;;;;;;;;5078693;28;20043;-75
2022/06/11 07:06:21;;;;;;;23.88;7.78;;;;;;;;;;5088728;28;20401;-76
2022/06/11 07:08:48;;;;;;;18.48;6.00;;;;;;;;;;5083818;28;20043;-75
2022/06/11 07:11:14;;;;;;;20.25;8.30;;;;;;;;;;5083872;28;20029;-75
2022/06/11 07:13:40;;;;;;;15.73;7.22;;;;;;;;;;5087324;28;20024;-75
2022/06/11 07:16:07;;;;;;;19.92;5.15;;;;;;;;;;5088226;28;20035;-76
2022/06/11 07:18:42;;;;;;;19.67;5.38;;;;;;;;;;5084188;28;20040;-75
2022/06/11 07:21:11;;;;;;;16.83;5.57;;;;;;;;;;5074861;28;20048;-76
2022/06/11 07:23:40;;;;;;;20.42;6.57;;;;;;;;;;5086578;28;20481;-76
2022/06/11 07:26:16;;;;;;;17.42;5.78;;;;;;;;;;5076817;28;20041;-76
2022/06/11 07:28:49;;;;;;;15.18;5.63;;;;;;;;;;5088472;28;20040;-76
2022/06/11 07:31:15;;;;;;;14.82;5.68;;;;;;;;;;5078734;28;20036;-76
2022/06/11 07:33:43;;;;;;;14.80;5.80;;;;;;;;;;5078262;28;20043;-76
2022/06/11 07:36:09;;;;;;;11.57;4.82;;;;;;;;;;5089518;28;20507;-76
2022/06/11 07:38:36;;;;;;;16.23;5.78;;;;;;;;;;5085770;28;20075;-77
2022/06/11 07:41:02;;;;;;;11.20;4.88;;;;;;;;;;5073760;28;20039;-76
2022/06/11 07:43:29;;;;;;;17.98;5.47;;;;;;;;;;5080838;28;20490;-76
2022/06/11 07:45:55;;;;;;;17.98;5.55;;;;;;;;;;5077980;28;20032;-77
2022/06/11 07:48:22;;;;;;;19.85;6.82;;;;;;;;;;5087297;28;20056;-77
2022/06/11 07:50:49;;;;;;;15.45;6.13;;;;;;;;;;5083436;28;20048;-76
2022/06/11 07:53:15;;;;;;;20.25;5.32;;;;;;;;;;5084251;28;20032;-77
2022/06/11 07:55:44;;;;;;;18.73;6.72;;;;;;;;;;5075935;28;20047;-76
2022/06/11 07:58:11;;;;;;;15.43;5.35;;;;;;;;;;5084211;28;20086;-76
2022/06/11 08:00:39;;;;;;;17.30;5.65;;;;;;;;;;5079663;28;20517;-76
2022/06/11 08:03:05;;;;;;;17.45;5.07;;;;;;;;;;5088680;28;20040;-76
2022/06/11 08:05:33;;;;;;;18.52;6.78;;;;;;;;;;5067502;28;20255;-76
2022/06/11 08:07:59;;;;;;;19.58;6.40;;;;;;;;;;5079497;28;20497;-76
2022/06/11 08:10:26;;;;;;;16.70;4.78;;;;;;;;;;5076845;28;20031;-76
2022/06/11 08:12:53;;;;;;;17.90;4.68;;;;;;;;;;5081169;28;20124;-77
2022/06/11 08:15:19;;;;;;;14.45;4.75;;;;;;;;;;5073454;28;20383;-76
2022/06/11 08:17:45;;;;;;;12.20;5.50;;;;;;;;;;5076924;28;20043;-77
2022/06/11 08:20:16;;;;;;;14.48;4.63;;;;;;;;;;5086640;28;20397;-77
2022/06/11 08:22:42;;;;;;;23.33;4.75;;;;;;;;;;5081482;28;20043;-77
2022/06/11 08:25:09;;;;;;;17.60;5.45;;;;;;;;;;5082169;28;20043;-77
2022/06/11 08:27:35;;;;;;;15.45;5.20;;;;;;;;;;5074161;28;20128;-77
2022/06/11 08:30:01;;;;;;;25.85;5.07;;;;;;;;;;5089470;28;20123;-77
2022/06/11 08:32:27;;;;;;;20.20;6.13;;;;;;;;;;5077314;28;20449;-77
2022/06/11 08:34:53;;;;;;;17.90;5.50;;;;;;;;;;5083102;28;20420;-77
2022/06/11 08:37:19;;;;;;;12.27;4.28;;;;;;;;;;5075304;28;20066;-77
2022/06/11 08:39:46;;;;;;;15.90;4.88;;;;;;;;;;5085086;28;20072;-78
2022/06/11 08:42:31;;;;;;;11.88;4.95;;;;;;;;;;5076375;28;20179;-78
2022/06/11 08:44:58;;;;;;;12.25;5.10;;;;;;;;;;5081281;28;20125;-78
2022/06/11 08:47:28;;;;;;;15.82;3.92;;;;;;;;;;5075326;28;20053;-78
2022/06/11 08:49:57;;;;;;;12.30;4.15;;;;;;;;;;5075959;28;20494;-77
2022/06/11 08:52:26;;;;;;;10.70;3.97;;;;;;;;;;5075268;28;20043;-78
2022/06/11 08:54:52;;;;;;;10.13;4.43;;;;;;;;;;5084179;28;20059;-78
2022/06/11 08:57:21;;;;;;;13.27;4.28;;;;;;;;;;5085799;28;20044;-78
2022/06/11 08:59:54;;;;;;;16.83;4.60;;;;;;;;;;5083010;28;20081;-78
2022/06/11 09:02:23;;;;;;;7.25;3.13;;;;;;;;;;5073629;28;20071;-78
2022/06/11 09:05:01;;;;;;;7.50;3.22;;;;;;;;;;5085329;28;20042;-78
2022/06/11 09:07:33;;;;;;;8.43;3.47;;;;;;;;;;5079309;28;20051;-77
2022/06/11 09:09:59;;;;;;;10.35;4.07;;;;;;;;;;5079939;28;20036;-78
2022/06/11 09:12:35;;;;;;;14.88;5.05;;;;;;;;;;5076885;28;20090;-78
2022/06/11 09:15:13;;;;;;;13.90;4.18;;;;;;;;;;5069565;28;20121;-79
2022/06/11 09:18:02;;;;;;;13.80;4.32;;;;;;;;;;5080676;28;20052;-78
2022/06/11 09:20:28;;;;;;;8.88;2.70;;;;;;;;;;5075052;28;20131;-78
2022/06/11 09:22:57;;;;;;;14.05;3.97;;;;;;;;;;5082862;28;20052;-78
2022/06/11 09:25:23;;;;;;;10.02;3.95;;;;;;;;;;5067702;28;20045;-77
2022/06/11 09:27:53;;;;;;;9.52;3.55;;;;;;;;;;5073359;28;20100;-78
2022/06/11 09:30:19;;;;;;;19.55;3.92;;;;;;;;;;5084797;28;20043;-78
2022/06/11 09:32:50;;;;;;;15.65;4.25;;;;;;;;;;5079794;28;20093;-78
2022/06/11 09:35:28;;;;;;;13.45;3.90;;;;;;;;;;5071983;28;20104;-78
2022/06/11 09:38:14;;;;;;;14.70;4.88;;;;;;;;;;5074719;28;20036;-78
2022/06/11 09:40:49;;;;;;;12.25;4.10;;;;;;;;;;5083700;28;20297;-78
2022/06/11 09:43:15;;;;;;;9.77;4.15;;;;;;;;;;5088121;28;20108;-77
2022/06/11 09:45:48;;;;;;;13.68;4.40;;;;;;;;;;5087135;28;20386;-77
2022/06/11 09:48:23;;;;;;;14.85;4.03;;;;;;;;;;5076915;28;20053;-77
2022/06/11 09:50:54;;;;;;;8.75;3.75;;;;;;;;;;5089414;28;20497;-78
2022/06/11 09:53:39;;;;;;;8.18;3.33;;;;;;;;;;5086483;28;20449;-79
2022/06/11 09:56:31;;;;;;;11.73;4.15;;;;;;;;;;5081950;28;20075;-78
2022/06/11 09:59:20;;;;;;;13.88;3.80;;;;;;;;;;5065752;28;20049;-78
2022/06/11 10:02:18;;;;;;;7.80;3.63;;;;;;;;;;5091036;28;20044;-77
2022/06/11 10:04:45;;;;;;;17.23;5.07;;;;;;;;;;5073191;28;20105;-79
2022/06/11 10:07:14;;;;;;;9.95;3.80;;;;;;;;;;5089928;28;20139;-78
2022/06/11 10:09:43;;;;;;;9.95;3.80;;;;;;;;;;5089568;28;20452;-77
2022/06/11 10:12:28;;;;;;;13.00;4.38;;;;;;;;;;5082430;28;20041;-77
2022/06/11 10:15:12;;;;;;;10.40;4.47;;;;;;;;;;5070221;28;20036;-78
2022/06/11 10:17:41;;;;;;;11.75;3.33;;;;;;;;;;5090594;28;20055;-77
2022/06/11 10:20:21;;;;;;;14.45;4.32;;;;;;;;;;5078197;28;20514;-79
2022/06/11 10:22:55;;;;;;;11.82;4.53;;;;;;;;;;5082468;28;20221;-78
2022/06/11 10:25:32;;;;;;;15.38;3.80;;;;;;;;;;5082890;28;20066;-78
2022/06/11 10:28:05;;;;;;;9.07;3.42;;;;;;;;;;5087216;28;20460;-78
2022/06/11 10:30:44;;;;;;;14.88;4.22;;;;;;;;;;5081057;28;20169;-78
2022/06/11 10:33:31;;;;;;;13.18;4.30;;;;;;;;;;5076816;28;20056;-78
2022/06/11 10:36:09;;;;;;;12.98;4.50;;;;;;;;;;5075989;28;20051;-78
2022/06/11 10:38:41;;;;;;;8.27;4.22;;;;;;;;;;5076998;28;20040;-79
2022/06/11 10:41:10;;;;;;;16.33;3.42;;;;;;;;;;5084933;28;20048;-79
2022/06/11 10:43:46;;;;;;;8.43;3.15;;;;;;;;;;5079430;28;20493;-79
2022/06/11 10:46:13;;;;;;;14.73;4.18;;;;;;;;;;5082407;28;20043;-79
2022/06/11 10:48:39;;;;;;;7.10;3.35;;;;;;;;;;5084713;28;20776;-77
2022/06/11 10:51:11;;;;;;;14.05;4.05;;;;;;;;;;5086777;28;20088;-77
2022/06/11 10:53:39;;;;;;;9.35;3.70;;;;;;;;;;5086417;28;20040;-77
2022/06/11 10:56:12;;;;;;;13.38;4.07;;;;;;;;;;5085366;28;20059;-77
2022/06/11 10:58:41;;;;;;;9.75;4.72;;;;;;;;;;5060475;28;20083;-79
2022/06/11 11:01:12;;;;;;;10.00;2.92;;;;;;;;;;5086852;28;20089;-78
2022/06/11 11:03:45;;;;;;;10.27;3.38;;;;;;;;;;5083328;28;20177;-77
2022/06/11 11:06:33;;;;;;;8.35;3.08;;;;;;;;;;5081997;28;20074;-77
2022/06/11 11:09:04;;;;;;;7.32;3.00;;;;;;;;;;5085818;28;20036;-77
2022/06/11 11:11:42;;;;;;;10.98;3.70;;;;;;;;;;5076451;28;20044;-79
2022/06/11 11:14:27;;;;;;;8.55;3.30;;;;;;;;;;5077350;28;20482;-77
2022/06/11 11:16:53;;;;;;;8.00;3.28;;;;;;;;;;5083555;28;20379;-79
2022/06/11 11:19:21;;;;;;;11.63;3.85;;;;;;;;;;5087104;28;20105;-78
2022/06/11 11:22:04;;;;;;;10.18;3.10;;;;;;;;;;5083496;28;20040;-78
2022/06/11 11:24:34;;;;;;;13.43;3.83;;;;;;;;;;5089303;28;20047;-80
2022/06/11 11:27:16;;;;;;;11.63;3.33;;;;;;;;;;5090247;28;20759;-78
2022/06/11 11:30:02;;;;;;;9.30;2.85;;;;;;;;;;5088679;28;20044;-77
2022/06/11 11:32:35;;;;;;;8.00;3.38;;;;;;;;;;5084839;28;20070;-79
2022/06/11 11:35:20;;;;;;;7.78;2.92;;;;;;;;;;5087374;28;20041;-77
2022/06/11 11:37:55;;;;;;;9.02;3.50;;;;;;;;;;5090183;28;20046;-76
2022/06/11 11:40:27;;;;;;;8.85;3.05;;;;;;;;;;5076932;28;20123;-77
2022/06/11 11:42:57;;;;;;;9.73;3.75;;;;;;;;;;5088425;28;20083;-79
2022/06/11 11:45:25;;;;;;;16.23;3.97;;;;;;;;;;5053425;28;20046;-79
2022/06/11 11:47:53;;;;;;;8.05;3.03;;;;;;;;;;5088672;28;20494;-78
2022/06/11 11:50:28;;;;;;;5.65;3.10;;;;;;;;;;5073499;28;20048;-79
2022/06/11 11:52:59;;;;;;;9.95;3.70;;;;;;;;;;5076864;28;20374;-78
2022/06/11 11:55:27;;;;;;;9.65;4.63;;;;;;;;;;5076361;28;20083;-78
2022/06/11 11:58:00;;;;;;;9.23;3.28;;;;;;;;;;5081075;28;20032;-78
2022/06/11 12:00:31;;;;;;;14.77;4.05;;;;;;;;;;5078316;28;20241;-79
2022/06/11 12:03:00;;;;;;;13.27;3.20;;;;;;;;;;5082654;28;20101;-80
2022/06/11 12:05:30;;;;;;;8.95;4.07;;;;;;;;;;5070907;28;20077;-78
2022/06/11 12:07:57;;;;;;;13.63;3.45;;;;;;;;;;5072757;28;20066;-77
2022/06/11 12:10:32;;;;;;;10.20;3.45;;;;;;;;;;5080714;28;20555;-78
2022/06/11 12:12:59;;;;;;;11.85;4.57;;;10.40;99.90;;;;;;5078881;28;20128;-78
2022/06/11 12:15:28;;;;;;;12.15;4.05;;;;;;;;;;5078938;28;20041;-80
2022/06/11 12:17:57;;;;;;;14.00;4.13;;;;;;;;;;5079479;28;20498;-78
2022/06/11 12:20:29;;;;;;;14.00;4.78;;;;;;;;;;5082907;28;20049;-78
2022/06/11 12:23:10;;;;;;;15.73;3.92;;;;;;;;;;5083678;28;20048;-79
2022/06/11 12:25:43;;;;;;;8.60;3.30;;;;;;;;;;5073808;28;20032;-79
2022/06/11 12:28:13;;;;;;;10.57;4.05;;;;;;;;;;5073201;28;20056;-78
2022/06/11 12:30:39;;;;;;;12.32;4.13;;;;;;;;;;5080054;28;20072;-78
2022/06/11 12:33:12;;;;;;;7.88;3.58;;;;;;;;;;5086517;28;20047;-78
2022/06/11 12:35:50;;;;;;;13.90;4.93;;;;;;;;;;5089395;28;20035;-78
2022/06/11 12:38:29;;;;;;;9.13;4.22;;;;;;;;;;5083927;28;20098;-77
2022/06/11 12:41:14;;;;;;;12.07;4.40;;;;;;;;;;5085859;28;20050;-78
2022/06/11 12:43:41;;;;;;;11.45;4.57;;;;;;;;;;5087849;28;20034;-79
2022/06/11 12:46:13;;;;;;;11.30;3.63;;;;;;;;;;5085172;28;20048;-79
2022/06/11 12:48:40;;;;;;;10.10;3.70;;;;;;;;;;5084490;28;20040;-77
2022/06/11 12:51:09;;;;;;;10.23;3.50;;;;;;;;;;5085180;28;20058;-78
2022/06/11 12:53:53;;;;;;;15.68;3.67;;;;;;;;;;5079483;28;20375;-78
2022/06/11 12:56:20;;;;;;;14.93;4.22;;;;;;;;;;5079586;28;20043;-78
2022/06/11 12:59:04;;;;;;;9.32;3.78;;;;;;;;;;5070315;28;20040;-76
2022/06/11 13:01:49;;;;;;;11.75;4.05;;;;;;;;;;5083918;28;20129;-77
2022/06/11 13:04:15;;;;;;;13.48;4.40;;;;;;;;;;5084167;28;20044;-78
2022/06/11 13:06:51;;;;;;;14.27;4.38;;;;;;;;;;5081390;28;20067;-78
2022/06/11 13:09:36;;;;;;;21.77;6.13;;;;;;;;;;5082682;28;20595;-77
2022/06/11 13:12:21;;;;;;;14.95;5.10;;;;;;;;;;5074794;28;20293;-78
2022/06/11 13:15:03;;;;;;;12.65;4.35;;;;;;;;;;5081668;28;20028;-78
2022/06/11 13:17:39;;;;;;;16.52;4.47;;;;;;;;;;5069447;28;20052;-78
2022/06/11 13:20:25;;;;;;;13.82;4.68;;;;;;;;;;5078597;28;20487;-78
2022/06/11 13:22:58;;;;;;;9.75;3.45;;;;;;;;;;5077560;28;20051;-78
2022/06/11 13:25:31;;;;;;;9.45;4.03;;;;;;;;;;5075556;28;20036;-77
2022/06/11 13:27:58;;;;;;;12.45;3.83;;;;;;;;;;5079052;28;20502;-77
2022/06/11 13:30:39;;;;;;;8.45;3.45;;;;;;;;;;5080803;28;20043;-80
2022/06/11 13:33:19;;;;;;;15.77;4.53;;;;;;;;;;5080374;28;20199;-79
2022/06/11 13:35:54;;;;;;;11.68;4.18;;;;;;;;;;5069110;28;20102;-78
2022/06/11 13:38:20;;;;;;;13.05;4.75;;;;;;;;;;5070403;28;20028;-77
2022/06/11 13:40:52;;;;;;;12.68;5.55;;;;;;;;;;5081563;28;20076;-77
2022/06/11 13:43:35;;;;;;;12.43;4.27;;;;;;;;;;5076861;28;20044;-77
2022/06/11 13:46:20;;;;;;;12.13;4.30;;;;;;;;;;5080216;28;20302;-77
2022/06/11 13:48:59;;;;;;;12.93;3.90;;;;;;;;;;5079890;28;20048;-78
2022/06/11 13:51:27;;;;;;;12.27;4.28;;;;;;;;;;5084401;28;20490;-77
2022/06/11 13:57:03;;;;;;;12.82;4.00;;;;;;;;;;5076777;28;20105;-77
2022/06/11 13:59:31;;;;;;;7.50;4.32;;;;;;;;;;5079967;28;20074;-77
2022/06/11 14:02:00;;;;;;;12.13;4.68;;;;;;;;;;5083881;28;20518;-77
2022/06/11 14:04:37;;;;;;;12.77;4.10;;;;;;;;;;5084276;28;20554;-77
2022/06/11 14:07:07;;;;;;;11.75;5.20;;;;;;;;;;5079096;28;20039;-76
2022/06/11 14:12:38;;;;;;;9.88;4.25;;;;;;;;;;5085036;28;20040;-79
2022/06/11 14:15:30;;;;;;;10.10;4.28;;;;;;;;;;5081464;28;20044;-78
2022/06/11 14:18:19;;;;;;;13.85;3.85;;;;;;;;;;5081743;28;20071;-76
2022/06/11 14:21:04;;;;;;;13.65;4.28;;;;;;;;;;5077658;28;20044;-77
2022/06/11 14:23:32;;;;;;;9.73;4.43;;;;;;;;;;5089414;28;20051;-78
2022/06/11 14:26:13;;;;;;;11.68;4.13;;;;;;;;;;5085923;28;20060;-77
2022/06/11 14:28:45;;;;;;;17.20;4.88;;;;;;;;;;5080548;28;20052;-77
2022/06/11 14:31:11;;;;;;;21.75;4.85;;;;;;;;;;5082878;28;20033;-77
2022/06/11 14:33:41;;;;;;;14.68;4.90;;;;;;;;;;5087210;28;20036;-77
2022/06/11 14:36:21;;;;;;;9.50;3.92;;;;;;;;;;5091066;28;20044;-77
2022/06/11 14:38:49;;;;;;;13.85;4.97;;;;;;;;;;5081056;28;20043;-78
2022/06/11 14:41:19;;;;;;;10.38;4.07;;;;;;;;;;5064429;28;20056;-78
2022/06/11 14:43:51;;;;;;;13.30;4.13;;;;;;;;;;5083762;28;20044;-78
2022/06/11 14:46:42;;;;;;;11.95;4.10;;;;;;;;;;5088246;28;20110;-78
2022/06/11 14:49:34;;;;;;;14.05;4.88;;;;;;;;;;5076689;28;20056;-78
2022/06/11 14:52:15;;;;;;;18.90;4.55;;;;;;;;;;5082872;28;20036;-79
2022/06/11 14:54:43;;;;;;;18.98;5.53;;;;;;;;;;5077145;28;20410;-78
2022/06/11 14:57:15;;;;;;;20.17;5.13;;;;;;;;;;5078956;28;20036;-81
2022/06/11 14:59:44;;;;;;;15.73;4.32;;;;;;;;;;5091263;28;20038;-80
2022/06/11 15:02:29;;;;;;;13.45;5.35;;;;;;;;;;5088714;28;20039;-79